Time;durP1;ratioP1;P1;durP2;ratioP2;P2;SDS_P1;SDS_P2;PMS_P1;PMS_P2;Temp;Humidity;BMP_temperature;BMP_pressure;BME280_temperature;BME280_humidity;BME280_pressure;Samples;Min_cycle;Max_cycle;Signal;HPM_P1;HPM_P2
2022/09/01 00:02:07;;;;;;;0.47;0.15;;;9.00;99.90;;;;;;6153342;23;20033;-74
2022/09/01 00:04:37;;;;;;;0.32;0.20;;;9.00;99.90;;;;;;6153079;23;20021;-74
2022/09/01 00:07:08;;;;;;;0.38;0.22;;;8.90;99.90;;;;;;6152664;23;20032;-74
2022/09/01 00:09:36;;;;;;;1.73;0.40;;;8.90;99.90;;;;;;6126372;23;20025;-75
2022/09/01 00:12:07;;;;;;;1.10;0.17;;;8.80;99.90;;;;;;6151796;23;20490;-75
2022/09/01 00:14:38;;;;;;;0.13;0.13;;;8.90;99.90;;;;;;6153967;23;20337;-75
2022/09/01 00:17:11;;;;;;;0.32;0.10;;;8.80;99.90;;;;;;6125304;23;20100;-75
2022/09/01 00:19:39;;;;;;;0.10;0.10;;;8.90;99.90;;;;;;6126941;23;20044;-75
2022/09/01 00:22:08;;;;;;;0.30;0.20;;;8.90;99.90;;;;;;6152927;23;20055;-75
2022/09/01 00:24:37;;;;;;;0.90;0.25;;;8.80;99.90;;;;;;6152083;23;20026;-75
2022/09/01 00:27:04;;;;;;;1.00;0.28;;;8.80;99.90;;;;;;6151384;23;20076;-76
2022/09/01 00:29:32;;;;;;;0.70;0.17;;;8.80;99.90;;;;;;6152449;23;20063;-76
2022/09/01 00:31:59;;;;;;;0.20;0.10;;;8.80;99.90;;;;;;6152868;23;20041;-76
2022/09/01 00:34:27;;;;;;;0.08;0.00;;;8.80;99.90;;;;;;6153070;23;20028;-75
2022/09/01 00:36:54;;;;;;;0.10;0.10;;;8.70;99.90;;;;;;6125208;23;20386;-76
2022/09/01 00:39:23;;;;;;;0.10;0.10;;;8.70;99.90;;;;;;6152564;23;20113;-75
2022/09/01 00:41:50;;;;;;;1.27;0.10;;;8.70;99.90;;;;;;6126256;23;20021;-76
2022/09/01 00:44:22;;;;;;;0.80;0.20;;;8.70;99.90;;;;;;6125292;23;20114;-75
2022/09/01 00:46:55;;;;;;;0.10;0.10;;;8.70;99.90;;;;;;6152596;23;20040;-75
2022/09/01 00:49:30;;;;;;;0.30;0.10;;;8.70;99.90;;;;;;6124978;23;21039;-75
2022/09/01 00:52:06;;;;;;;1.10;0.28;;;8.60;99.90;;;;;;6152751;23;20025;-75
2022/09/01 00:54:40;;;;;;;0.95;0.22;;;8.60;99.90;;;;;;6150914;23;20160;-75
2022/09/01 00:57:11;;;;;;;1.00;0.30;;;8.60;99.90;;;;;;6152923;23;20045;-75
2022/09/01 00:59:47;;;;;;;0.17;0.10;;;8.60;99.90;;;;;;6151127;23;20025;-75
2022/09/01 01:02:14;;;;;;;1.13;0.10;;;8.60;99.90;;;;;;6126219;23;20482;-75
2022/09/01 01:04:42;;;;;;;2.03;0.30;;;8.60;99.90;;;;;;6150354;23;20709;-75
2022/09/01 01:07:12;;;;;;;2.17;1.25;;;8.60;99.90;;;;;;6152092;23;20028;-75
2022/09/01 01:09:44;;;;;;;0.47;0.20;;;8.60;99.90;;;;;;6126919;23;20108;-75
2022/09/01 01:12:17;;;;;;;0.27;0.20;;;8.60;99.90;;;;;;6125568;23;20022;-75
2022/09/01 01:14:49;;;;;;;0.30;0.10;;;8.60;99.90;;;;;;6152258;23;20026;-75
2022/09/01 01:17:17;;;;;;;0.77;0.30;;;8.60;99.90;;;;;;6152671;23;20037;-75
2022/09/01 01:25:29;;;;;;;0.52;0.32;;;8.60;99.90;;;;;;6125645;23;20028;-75
2022/09/01 01:28:10;;;;;;;1.45;0.40;;;8.60;99.90;;;;;;6150822;23;20030;-75
2022/09/01 01:30:41;;;;;;;0.35;0.28;;;8.60;99.90;;;;;;6124348;23;20532;-75
2022/09/01 01:33:10;;;;;;;0.88;0.40;;;8.60;99.90;;;;;;6125880;23;20064;-74
2022/09/01 01:35:38;;;;;;;0.30;0.20;;;8.60;99.90;;;;;;6101698;23;20367;-74
2022/09/01 01:38:07;;;;;;;1.02;0.20;;;8.60;99.90;;;;;;6126490;23;20029;-74
2022/09/01 01:40:38;;;;;;;2.65;0.30;;;8.60;99.90;;;;;;6099997;23;20124;-75
2022/09/01 01:43:06;;;;;;;1.77;0.32;;;8.60;99.90;;;;;;6125876;23;20379;-75
2022/09/01 01:45:33;;;;;;;2.30;0.60;;;8.60;99.90;;;;;;6124854;23;20358;-74
2022/09/01 01:48:07;;;;;;;1.13;0.30;;;8.60;99.90;;;;;;6126155;23;20025;-74
2022/09/01 01:50:37;;;;;;;0.32;0.32;;;8.60;99.90;;;;;;6124554;23;20021;-74
2022/09/01 01:53:08;;;;;;;0.80;0.43;;;8.60;99.90;;;;;;6125853;23;20084;-74
2022/09/01 01:55:38;;;;;;;0.55;0.45;;;8.50;99.90;;;;;;6124909;23;20092;-73
2022/09/01 01:58:06;;;;;;;0.77;0.55;;;8.60;99.90;;;;;;6128108;23;20057;-75
2022/09/01 02:00:35;;;;;;;0.88;0.50;;;8.50;99.90;;;;;;6126508;23;20026;-75
2022/09/01 02:03:06;;;;;;;1.65;0.22;;;8.50;99.90;;;;;;6126405;23;20060;-75
2022/09/01 02:05:36;;;;;;;0.93;0.30;;;8.50;99.90;;;;;;6153679;23;20056;-75
2022/09/01 02:08:07;;;;;;;3.03;0.28;;;8.50;99.90;;;;;;6126469;23;20085;-74
2022/09/01 02:10:40;;;;;;;1.88;0.32;;;8.50;99.90;;;;;;6127987;23;20030;-74
2022/09/01 02:13:14;;;;;;;0.20;0.20;;;8.50;99.90;;;;;;6128240;23;20017;-75
2022/09/01 02:15:46;;;;;;;0.15;0.15;;;8.50;99.90;;;;;;6127947;23;20359;-75
2022/09/01 02:18:19;;;;;;;1.67;0.10;;;8.50;99.90;;;;;;6125637;23;20145;-74
2022/09/01 02:20:49;;;;;;;0.40;0.30;;;8.50;99.90;;;;;;6103466;23;20269;-76
2022/09/01 02:23:22;;;;;;;0.47;0.25;;;8.50;99.90;;;;;;6151834;23;20112;-75
2022/09/01 02:25:53;;;;;;;0.80;0.30;;;8.50;99.90;;;;;;6128184;23;20029;-75
2022/09/01 02:28:22;;;;;;;0.35;0.20;;;8.50;99.90;;;;;;6126573;23;20100;-75
2022/09/01 02:30:53;;;;;;;0.40;0.40;;;8.50;99.90;;;;;;6127648;23;20072;-76
2022/09/01 02:33:23;;;;;;;0.20;0.20;;;8.50;99.90;;;;;;6127927;23;20096;-73
2022/09/01 02:35:53;;;;;;;0.25;0.25;;;8.50;99.90;;;;;;6152980;23;20022;-72
2022/09/01 02:38:25;;;;;;;0.80;0.25;;;8.60;99.90;;;;;;6127925;23;20468;-72
2022/09/01 02:40:54;;;;;;;0.65;0.65;;;8.50;99.90;;;;;;6126222;23;20021;-71
2022/09/01 02:43:25;;;;;;;0.82;0.60;;;8.50;99.90;;;;;;6153931;23;20100;-71
2022/09/01 02:45:56;;;;;;;1.13;0.30;;;8.60;99.90;;;;;;6126186;23;20076;-71
2022/09/01 02:48:31;;;;;;;0.47;0.22;;;8.60;99.90;;;;;;6103010;23;20029;-72
2022/09/01 02:51:00;;;;;;;0.65;0.30;;;8.60;99.90;;;;;;6127307;23;20049;-72
2022/09/01 02:53:28;;;;;;;2.28;0.30;;;8.60;99.90;;;;;;6128012;23;20031;-75
2022/09/01 02:55:58;;;;;;;1.75;0.30;;;8.60;99.90;;;;;;6125926;23;20029;-76
2022/09/01 02:58:31;;;;;;;1.95;0.32;;;8.60;99.90;;;;;;6102914;23;20048;-76
2022/09/01 03:00:59;;;;;;;1.40;0.30;;;8.60;99.90;;;;;;6127192;23;20025;-74
2022/09/01 03:03:28;;;;;;;0.82;0.30;;;8.60;99.90;;;;;;6126286;23;20080;-73
2022/09/01 03:05:55;;;;;;;2.92;0.40;;;8.60;99.90;;;;;;6127036;23;20032;-74
2022/09/01 03:08:24;;;;;;;1.02;0.20;;;8.50;99.90;;;;;;6126685;23;20048;-75
2022/09/01 03:10:53;;;;;;;0.63;0.30;;;8.50;99.90;;;;;;6127725;23;20104;-75
2022/09/01 03:13:24;;;;;;;0.30;0.30;;;8.60;99.90;;;;;;6101253;23;20021;-72
2022/09/01 03:15:52;;;;;;;1.40;0.30;;;8.60;99.90;;;;;;6102767;23;20329;-71
2022/09/01 03:18:19;;;;;;;0.65;0.28;;;8.60;99.90;;;;;;6124451;23;20451;-72
2022/09/01 03:20:49;;;;;;;0.20;0.20;;;8.60;99.90;;;;;;6127036;23;20026;-73
2022/09/01 03:23:18;;;;;;;3.35;3.05;;;8.60;99.90;;;;;;6151478;23;20025;-72
2022/09/01 03:25:47;;;;;;;0.50;0.50;;;8.60;99.90;;;;;;6127598;23;20025;-72
2022/09/01 03:28:16;;;;;;;0.40;0.35;;;8.70;99.90;;;;;;6153398;23;20036;-73
2022/09/01 03:30:50;;;;;;;2.20;0.40;;;8.70;99.90;;;;;;6127349;23;20363;-73
2022/09/01 03:33:20;;;;;;;1.58;0.30;;;8.70;99.90;;;;;;6125580;23;20021;-74
2022/09/01 03:35:48;;;;;;;0.38;0.28;;;8.70;99.90;;;;;;6127510;23;20025;-73
2022/09/01 03:38:20;;;;;;;0.73;0.30;;;8.70;99.90;;;;;;6152740;23;20036;-72
2022/09/01 03:40:51;;;;;;;1.65;0.30;;;8.70;99.90;;;;;;6125815;23;20075;-72
2022/09/01 03:43:22;;;;;;;3.45;0.40;;;8.70;99.90;;;;;;6126702;23;20032;-72
2022/09/01 03:45:52;;;;;;;1.02;0.70;;;8.70;99.90;;;;;;6127073;23;20096;-73
2022/09/01 03:48:21;;;;;;;0.38;0.20;;;8.70;99.90;;;;;;6126745;23;20355;-72
2022/09/01 03:50:48;;;;;;;1.23;0.30;;;8.70;99.90;;;;;;6125212;23;20025;-73
2022/09/01 03:53:21;;;;;;;3.17;0.40;;;8.70;99.90;;;;;;6126845;23;20072;-73
2022/09/01 03:55:51;;;;;;;;;;;8.70;99.90;;;;;;6125920;23;20370;-72
2022/09/01 03:58:20;;;;;;;3.58;0.60;;;8.70;99.90;;;;;;6101896;23;19924;-72
2022/09/01 04:00:54;;;;;;;1.27;0.77;;;8.70;99.90;;;;;;6124651;23;20474;-72
2022/09/01 04:03:24;;;;;;;0.43;0.43;;;8.70;99.90;;;;;;6126755;23;20025;-72
2022/09/01 04:05:54;;;;;;;0.20;0.20;;;8.70;99.90;;;;;;6153267;23;20022;-73
2022/09/01 04:08:29;;;;;;;1.00;0.30;;;8.70;99.90;;;;;;6126120;23;20029;-72
2022/09/01 04:11:01;;;;;;;2.03;0.60;;;8.70;99.90;;;;;;6152859;23;20031;-72
2022/09/01 04:13:34;;;;;;;;;;;8.80;99.90;;;;;;6125462;23;20021;-72
2022/09/01 04:16:09;;;;;;;0.45;0.25;;;8.80;99.90;;;;;;6126540;23;19920;-73
2022/09/01 04:18:38;;;;;;;0.38;0.28;;;8.80;99.90;;;;;;6100372;23;20059;-73
2022/09/01 04:21:09;;;;;;;0.20;0.20;;;8.80;99.90;;;;;;6126785;23;20105;-74
2022/09/01 04:23:36;;;;;;;1.05;0.38;;;8.80;99.90;;;;;;6126236;23;20021;-72
2022/09/01 04:26:13;;;;;;;0.80;0.40;;;8.80;99.90;;;;;;6151540;23;20025;-72
2022/09/01 04:28:45;;;;;;;3.33;0.60;;;8.90;99.90;;;;;;6124250;23;20100;-71
2022/09/01 04:31:21;;;;;;;3.50;0.50;;;8.90;99.90;;;;;;6126565;23;20029;-72
2022/09/01 04:33:53;;;;;;;0.70;0.45;;;9.00;99.90;;;;;;6102849;23;20072;-76
2022/09/01 04:36:26;;;;;;;0.80;0.40;;;9.00;99.90;;;;;;6100775;23;20025;-75
2022/09/01 04:38:57;;;;;;;1.67;0.70;;;9.00;99.90;;;;;;6151939;23;20104;-74
2022/09/01 04:41:30;;;;;;;0.73;0.50;;;9.00;99.90;;;;;;6125251;23;20035;-74
2022/09/01 04:44:03;;;;;;;1.38;0.60;;;9.00;99.90;;;;;;6126158;23;20026;-75
2022/09/01 04:46:41;;;;;;;1.48;0.50;;;9.00;99.90;;;;;;6125111;23;20052;-74
2022/09/01 04:49:11;;;;;;;3.58;0.90;;;9.10;99.90;;;;;;6126680;23;20419;-74
2022/09/01 04:51:40;;;;;;;1.65;0.63;;;9.10;99.90;;;;;;6126320;23;20024;-75
2022/09/01 04:54:13;;;;;;;0.82;0.50;;;9.10;99.90;;;;;;6125086;23;20021;-74
2022/09/01 04:56:49;;;;;;;1.60;1.23;;;9.10;99.90;;;;;;6123457;23;20080;-73
2022/09/01 04:59:19;;;;;;;1.00;0.52;;;9.20;99.90;;;;;;6125180;23;20023;-76
2022/09/01 05:01:59;;;;;;;0.60;0.60;;;9.20;99.90;;;;;;6151644;23;20022;-73
2022/09/01 05:04:32;;;;;;;0.70;0.50;;;9.20;99.90;;;;;;6099738;23;20026;-74
2022/09/01 05:07:04;;;;;;;1.42;0.60;;;9.30;99.90;;;;;;6125838;23;20048;-73
2022/09/01 05:09:41;;;;;;;3.55;1.58;;;9.30;99.90;;;;;;6099816;23;20035;-76
2022/09/01 05:12:28;;;;;;;1.42;0.70;;;9.40;99.90;;;;;;6123381;23;20124;-74
2022/09/01 05:14:56;;;;;;;3.42;1.10;;;9.40;99.90;;;;;;6148089;23;20029;-76
2022/09/01 05:17:27;;;;;;;1.27;0.98;;;9.50;99.90;;;;;;6097819;23;20430;-74
2022/09/01 05:19:55;;;;;;;2.15;1.00;;;9.50;99.90;;;;;;6149152;23;20032;-75
2022/09/01 05:22:25;;;;;;;1.55;0.80;;;9.50;99.90;;;;;;6122733;23;20025;-76
2022/09/01 05:25:11;;;;;;;2.90;0.80;;;9.60;99.90;;;;;;6123882;23;20088;-75
2022/09/01 05:27:48;;;;;;;1.02;0.63;;;9.60;99.90;;;;;;6098610;23;20116;-76
2022/09/01 05:30:17;;;;;;;2.63;0.70;;;9.60;99.90;;;;;;6125271;23;20018;-75
2022/09/01 05:32:49;;;;;;;2.67;1.08;;;9.70;99.90;;;;;;6121594;23;20048;-72
2022/09/01 05:35:19;;;;;;;2.88;0.75;;;9.70;99.90;;;;;;6127034;23;20044;-77
2022/09/01 05:37:50;;;;;;;2.45;0.90;;;9.80;99.90;;;;;;6127578;23;20028;-76
2022/09/01 05:40:20;;;;;;;7.40;1.58;;;9.80;99.90;;;;;;6127695;23;20017;-73
2022/09/01 05:42:48;;;;;;;12.68;2.25;;;9.80;99.90;;;;;;6126302;23;20025;-76
2022/09/01 05:45:22;;;;;;;2.97;0.98;;;9.90;99.90;;;;;;6126202;23;20116;-75
2022/09/01 05:47:53;;;;;;;6.80;1.83;;;9.90;99.90;;;;;;6126549;23;20056;-78
2022/09/01 05:50:21;;;;;;;5.95;1.67;;;9.90;99.90;;;;;;6127640;23;20021;-76
2022/09/01 05:52:49;;;;;;;2.65;1.10;;;9.90;99.90;;;;;;6128491;23;20415;-75
2022/09/01 05:55:17;;;;;;;1.83;0.80;;;10.00;99.90;;;;;;6154936;23;20097;-76
2022/09/01 05:57:46;;;;;;;2.50;1.00;;;10.10;99.90;;;;;;6102602;23;20398;-75
2022/09/01 06:00:16;;;;;;;1.95;0.88;;;10.20;99.90;;;;;;6123620;23;20370;-76
2022/09/01 06:02:47;;;;;;;5.15;0.90;;;10.30;99.90;;;;;;6149358;23;20080;-75
2022/09/01 06:05:21;;;;;;;5.38;1.27;;;10.30;99.90;;;;;;6128833;23;20028;-76
2022/09/01 06:07:56;;;;;;;3.67;0.88;;;10.20;99.90;;;;;;6128493;23;20060;-75
2022/09/01 06:10:24;;;;;;;2.20;1.10;;;10.20;99.90;;;;;;6127255;23;20360;-76
2022/09/01 06:12:52;;;;;;;1.80;0.95;;;10.20;99.90;;;;;;6128411;23;20021;-75
2022/09/01 06:15:21;;;;;;;2.00;1.00;;;10.20;99.90;;;;;;6125933;23;20068;-75
2022/09/01 06:17:52;;;;;;;2.17;0.93;;;10.20;99.90;;;;;;6125737;23;20029;-76
2022/09/01 06:20:21;;;;;;;3.30;1.10;;;10.20;99.90;;;;;;6123693;23;20224;-76
2022/09/01 06:22:52;;;;;;;2.88;0.98;;;10.30;99.90;;;;;;6151264;23;20021;-76
2022/09/01 06:25:20;;;;;;;2.75;0.85;;;10.30;99.90;;;;;;6125050;23;20032;-75
2022/09/01 06:27:48;;;;;;;1.25;0.75;;;10.20;99.90;;;;;;6150119;23;20029;-76
2022/09/01 06:30:19;;;;;;;1.15;0.90;;;10.20;99.90;;;;;;6153835;23;20383;-76
2022/09/01 06:32:54;;;;;;;5.55;0.70;;;10.20;99.90;;;;;;6128956;23;20028;-76
2022/09/01 06:35:28;;;;;;;2.03;0.75;;;10.30;99.90;;;;;;6154516;23;20022;-76
2022/09/01 06:37:57;;;;;;;7.03;0.98;;;10.50;99.90;;;;;;6126680;23;20029;-76
2022/09/01 06:40:41;;;;;;;5.57;1.55;;;10.50;99.90;;;;;;6128555;23;20398;-76
2022/09/01 06:43:11;;;;;;;4.10;1.60;;;10.60;99.90;;;;;;6153848;23;20056;-76
2022/09/01 06:45:43;;;;;;;2.85;0.90;;;10.60;99.90;;;;;;6103692;23;20336;-76
2022/09/01 06:48:15;;;;;;;1.20;1.08;;;10.60;99.90;;;;;;6152659;23;20053;-76
2022/09/01 06:50:46;;;;;;;12.45;3.70;;;10.60;99.90;;;;;;6128244;23;20018;-76
2022/09/01 06:53:17;;;;;;;2.08;0.90;;;10.60;99.90;;;;;;6128662;23;20030;-76
2022/09/01 06:55:49;;;;;;;2.40;1.20;;;10.60;99.90;;;;;;6152881;23;20466;-76
2022/09/01 06:58:17;;;;;;;3.80;1.10;;;10.60;99.90;;;;;;6127869;23;20033;-76
2022/09/01 07:00:50;;;;;;;;;;;10.50;99.90;;;;;;6102408;23;20030;-76
2022/09/01 07:03:18;;;;;;;1.17;1.00;;;10.50;99.90;;;;;;6153799;23;19924;-75
2022/09/01 07:06:08;;;;;;;2.30;0.93;;;10.50;99.90;;;;;;6152173;23;20021;-76
2022/09/01 07:08:56;;;;;;;2.17;0.80;;;10.50;99.90;;;;;;6153919;23;20400;-76
2022/09/01 07:11:32;;;;;;;1.15;0.70;;;10.50;99.90;;;;;;6103822;23;20482;-75
2022/09/01 07:14:03;;;;;;;2.53;0.90;;;10.60;99.90;;;;;;6152635;23;20025;-75
2022/09/01 07:16:39;;;;;;;3.83;0.80;;;10.60;99.90;;;;;;6127734;23;20024;-76
2022/09/01 07:19:13;;;;;;;1.55;0.90;;;10.60;99.90;;;;;;6128421;23;20022;-75
2022/09/01 07:21:51;;;;;;;1.25;0.60;;;10.60;99.90;;;;;;6128164;23;20088;-76
2022/09/01 07:24:21;;;;;;;2.53;0.80;;;10.50;99.90;;;;;;6152190;23;20021;-78
2022/09/01 07:27:09;;;;;;;4.57;1.35;;;10.50;99.90;;;;;;6127636;23;20064;-76
2022/09/01 07:29:38;;;;;;;2.17;1.08;;;10.50;99.90;;;;;;6127817;23;20052;-76
2022/09/01 07:32:06;;;;;;;2.40;0.80;;;10.50;99.90;;;;;;6127850;23;20029;-76
2022/09/01 07:34:35;;;;;;;2.10;0.73;;;10.40;99.90;;;;;;6126247;23;20029;-77
2022/09/01 07:37:06;;;;;;;3.17;0.80;;;10.40;99.90;;;;;;6126923;23;20084;-77
2022/09/01 07:39:37;;;;;;;4.93;1.05;;;10.40;99.90;;;;;;6151216;23;20084;-77
2022/09/01 07:42:26;;;;;;;1.55;0.70;;;10.30;99.90;;;;;;6136079;23;20025;-76
2022/09/01 07:45:15;;;;;;;2.40;0.73;;;10.30;99.90;;;;;;6153958;23;20021;-76
2022/09/01 07:47:47;;;;;;;2.42;0.73;;;10.30;99.90;;;;;;6127480;23;20062;-77
2022/09/01 07:50:17;;;;;;;1.98;0.85;;;10.30;99.90;;;;;;6127770;23;20076;-77
2022/09/01 07:52:48;;;;;;;1.23;0.80;;;10.30;99.90;;;;;;6152388;23;20044;-77
2022/09/01 07:55:17;;;;;;;2.55;0.80;;;10.40;99.90;;;;;;6103291;23;20022;-76
2022/09/01 07:57:45;;;;;;;1.85;0.60;;;10.40;99.90;;;;;;6151858;23;20189;-76
2022/09/01 08:00:20;;;;;;;2.75;1.02;;;10.40;99.90;;;;;;6102081;23;20466;-76
2022/09/01 08:02:51;;;;;;;2.35;1.00;;;10.50;99.90;;;;;;6127017;23;20017;-75
2022/09/01 08:05:25;;;;;;;1.45;0.65;;;10.60;99.90;;;;;;6127762;23;20027;-75
2022/09/01 08:07:54;;;;;;;2.08;1.15;;;10.70;99.90;;;;;;6103064;23;20390;-76
2022/09/01 08:10:26;;;;;;;1.80;0.70;;;10.70;99.90;;;;;;6125686;23;20538;-76
2022/09/01 08:12:57;;;;;;;2.05;1.00;;;10.80;99.90;;;;;;6102604;23;20021;-77
2022/09/01 08:15:33;;;;;;;2.80;0.80;;;10.80;99.90;;;;;;6125872;23;20542;-77
2022/09/01 08:18:00;;;;;;;1.60;0.90;;;10.90;99.90;;;;;;6126599;23;20045;-75
2022/09/01 08:20:33;;;;;;;4.05;0.82;;;11.00;99.90;;;;;;6126021;23;20017;-77
2022/09/01 08:23:25;;;;;;;2.65;0.77;;;11.00;99.90;;;;;;6126820;23;20435;-76
2022/09/01 08:25:54;;;;;;;3.75;0.75;;;11.00;99.90;;;;;;6127554;23;20064;-77
2022/09/01 08:28:22;;;;;;;2.63;0.90;;;11.00;99.90;;;;;;6125920;23;20029;-77
2022/09/01 08:30:49;;;;;;;1.63;0.90;;;11.10;99.90;;;;;;6126910;23;20025;-77
2022/09/01 08:33:18;;;;;;;3.10;0.60;;;11.10;99.90;;;;;;6126840;23;20026;-77
2022/09/01 08:35:50;;;;;;;2.88;0.85;;;11.10;99.90;;;;;;6125209;23;20538;-78
2022/09/01 08:38:20;;;;;;;3.90;0.80;;;11.20;99.90;;;;;;6125190;23;20100;-78
2022/09/01 08:40:54;;;;;;;2.05;0.60;;;11.20;99.90;;;;;;6152640;23;20025;-77
2022/09/01 08:43:36;;;;;;;2.47;0.95;;;11.20;99.90;;;;;;6151294;23;20328;-78
2022/09/01 08:46:13;;;;;;;3.38;0.80;;;11.30;99.90;;;;;;6126769;23;20032;-78
2022/09/01 08:49:22;;;;;;;1.63;1.10;;;11.30;99.90;;;;;;6125602;23;20044;-80
2022/09/01 08:52:23;;;;;;;1.77;0.80;;;11.40;99.90;;;;;;6152800;23;20025;-79
2022/09/01 08:54:58;;;;;;;2.30;1.10;;;11.30;99.90;;;;;;6126931;23;20101;-78
2022/09/01 08:57:33;;;;;;;3.50;1.00;;;11.60;99.90;;;;;;6124571;23;20076;-78
2022/09/01 09:00:24;;;;;;;2.17;0.90;;;11.80;99.90;;;;;;6152682;23;20124;-77
2022/09/01 09:03:10;;;;;;;3.08;1.20;;;12.00;99.90;;;;;;6126614;23;20469;-77
2022/09/01 09:06:06;;;;;;;2.15;0.73;;;12.20;99.90;;;;;;6124962;23;20031;-78
2022/09/01 09:09:00;;;;;;;2.53;0.88;;;12.20;99.90;;;;;;6126415;23;20028;-78
2022/09/01 09:12:21;;;;;;;2.53;0.80;;;12.20;99.90;;;;;;6124928;23;20061;-79
2022/09/01 09:15:15;;;;;;;2.67;0.90;;;12.20;99.90;;;;;;6149841;23;20025;-79
2022/09/01 09:18:01;;;;;;;4.68;1.15;;;12.20;99.90;;;;;;6151822;23;20025;-80
2022/09/01 09:20:30;;;;;;;3.95;0.80;;;12.20;99.90;;;;;;6101485;23;20559;-78
2022/09/01 09:23:25;;;;;;;2.00;1.25;;;12.20;99.90;;;;;;6126198;23;20026;-78
2022/09/01 09:25:53;;;;;;;1.10;0.77;;;12.20;99.90;;;;;;6123917;23;20076;-78
2022/09/01 09:28:23;;;;;;;2.13;1.02;;;12.10;99.90;;;;;;6151247;23;20025;-78
2022/09/01 09:31:27;;;;;;;3.55;1.05;;;12.00;99.90;;;;;;6151341;23;20124;-77
2022/09/01 09:33:55;;;;;;;3.05;1.15;;;11.90;99.90;;;;;;6124721;23;20028;-79
2022/09/01 09:36:31;;;;;;;1.67;0.50;;;11.70;99.90;;;;;;6152497;23;20045;-79
2022/09/01 09:39:11;;;;;;;2.42;0.90;;;11.70;99.90;;;;;;6152084;23;20204;-76
2022/09/01 09:41:41;;;;;;;11.57;1.50;;;11.70;99.90;;;;;;6151575;23;20029;-78
2022/09/01 09:44:22;;;;;;;1.52;0.45;;;11.80;99.90;;;;;;6124205;23;20455;-78
2022/09/01 09:46:57;;;;;;;1.02;0.43;;;12.00;99.90;;;;;;6126218;23;20098;-78
2022/09/01 09:49:31;;;;;;;6.15;0.93;;;12.00;99.90;;;;;;6125419;23;20022;-78
2022/09/01 09:52:18;;;;;;;2.45;0.63;;;11.90;99.90;;;;;;6150246;23;20021;-78
2022/09/01 09:55:10;;;;;;;2.35;0.85;;;12.00;99.90;;;;;;6151606;23;20638;-77
2022/09/01 09:57:42;;;;;;;2.25;0.85;;;12.00;99.90;;;;;;6126475;23;20032;-78
2022/09/01 10:00:23;;;;;;;1.42;1.00;;;12.00;99.90;;;;;;6152189;23;20125;-78
2022/09/01 10:03:00;;;;;;;4.07;1.60;;;12.00;99.90;;;;;;6124111;23;20394;-77
2022/09/01 10:05:37;;;;;;;1.90;1.10;;;12.10;99.90;;;;;;6151185;23;20185;-82
2022/09/01 10:08:07;;;;;;;3.72;1.23;;;12.10;99.90;;;;;;6151626;23;20391;-77
2022/09/01 10:10:42;;;;;;;2.63;1.30;;;12.20;99.90;;;;;;6149876;23;20076;-77
2022/09/01 10:13:15;;;;;;;3.00;1.45;;;12.30;99.90;;;;;;6152026;23;20026;-77
2022/09/01 10:15:48;;;;;;;5.32;1.73;;;12.30;99.90;;;;;;6152045;23;20021;-78
2022/09/01 10:18:22;;;;;;;1.77;1.35;;;12.40;99.90;;;;;;6153064;23;20030;-79
2022/09/01 10:20:59;;;;;;;4.45;1.80;;;12.40;99.90;;;;;;6156963;23;20032;-78
2022/09/01 10:23:28;;;;;;;1.73;1.30;;;12.40;99.90;;;;;;6182177;23;20056;-80
2022/09/01 10:26:01;;;;;;;2.13;1.15;;;12.40;99.90;;;;;;6182776;23;20024;-77
2022/09/01 10:28:31;;;;;;;2.75;1.35;;;12.30;99.90;;;;;;6181915;23;20025;-78
2022/09/01 10:31:02;;;;;;;2.30;1.27;;;12.10;99.90;;;;;;6181257;23;20454;-78
2022/09/01 10:33:30;;;;;;;2.55;0.90;;;12.00;99.90;;;;;;6181310;23;20017;-79
2022/09/01 10:35:58;;;;;;;2.95;1.40;;;11.90;99.90;;;;;;6182036;23;20021;-79
2022/09/01 10:38:28;;;;;;;2.05;1.10;;;11.80;99.90;;;;;;6181042;23;20036;-77
2022/09/01 10:41:06;;;;;;;2.30;1.00;;;11.80;99.90;;;;;;6182864;23;20035;-79
2022/09/01 10:43:41;;;;;;;1.85;1.05;;;11.70;99.90;;;;;;6182355;23;20017;-78
2022/09/01 10:46:47;;;;;;;3.60;0.90;;;11.70;99.90;;;;;;6183673;23;20029;-77
2022/09/01 10:49:57;;;;;;;0.90;0.60;;;11.70;99.90;;;;;;6150653;23;20112;-78
2022/09/01 10:53:06;;;;;;;2.17;0.73;;;11.80;99.90;;;;;;6181961;23;20017;-78
2022/09/01 10:55:44;;;;;;;1.58;1.17;;;11.80;99.90;;;;;;6181810;23;20036;-76
2022/09/01 10:58:51;;;;;;;2.17;0.68;;;11.70;99.90;;;;;;6178807;23;20132;-78
2022/09/01 11:02:12;;;;;;;2.72;1.52;;;11.60;99.90;;;;;;6123966;23;20021;-77
2022/09/01 11:05:15;;;;;;;2.25;1.00;;;11.50;99.90;;;;;;6182937;23;20500;-77
2022/09/01 11:07:44;;;;;;;1.77;0.80;;;11.50;99.90;;;;;;6180698;23;20032;-77
2022/09/01 11:10:38;;;;;;;1.23;0.90;;;11.60;99.90;;;;;;6181447;23;20021;-77
2022/09/01 11:13:37;;;;;;;;;;;11.60;99.90;;;;;;6155542;23;20052;-77
2022/09/01 11:16:42;;;;;;;1.45;0.47;;;11.70;99.90;;;;;;6171885;23;20003;-76
2022/09/01 11:19:37;;;;;;;3.92;0.85;;;11.70;99.90;;;;;;6129913;23;20036;-75
2022/09/01 11:22:24;;;;;;;1.70;0.85;;;11.60;99.90;;;;;;6181865;23;20476;-75
2022/09/01 11:25:26;;;;;;;3.22;1.00;;;11.60;99.90;;;;;;6180906;23;20063;-77
2022/09/01 11:28:02;;;;;;;2.08;1.10;;;11.50;99.90;;;;;;6181676;23;20021;-77
2022/09/01 11:30:57;;;;;;;5.60;1.23;;;11.30;99.90;;;;;;6181980;23;20107;-73
2022/09/01 11:33:41;;;;;;;4.45;0.70;;;11.10;99.90;;;;;;6182070;23;20191;-73
2022/09/01 11:36:23;;;;;;;1.88;0.55;;;11.00;99.90;;;;;;6177794;23;20260;-72
2022/09/01 11:38:59;;;;;;;1.98;0.63;;;10.90;99.90;;;;;;6181153;23;20025;-73
2022/09/01 11:41:32;;;;;;;2.50;0.85;;;10.80;99.90;;;;;;6181049;23;20028;-74
2022/09/01 11:44:07;;;;;;;4.68;1.13;;;10.80;99.90;;;;;;6180150;23;20025;-73
2022/09/01 11:46:37;;;;;;;1.85;0.88;;;10.80;99.90;;;;;;6181109;23;20025;-73
2022/09/01 11:49:09;;;;;;;2.05;1.23;;;10.80;99.90;;;;;;6179933;23;20021;-72
2022/09/01 11:51:46;;;;;;;3.40;1.40;;;10.90;99.90;;;;;;6129260;23;20195;-73
2022/09/01 11:54:16;;;;;;;3.35;1.17;;;10.90;99.90;;;;;;6152842;23;20025;-72
2022/09/01 11:56:43;;;;;;;7.28;1.13;;;10.90;99.90;;;;;;6180503;23;20113;-71
2022/09/01 11:59:11;;;;;;;3.17;0.93;;;11.00;99.90;;;;;;6180681;23;20059;-76
2022/09/01 12:01:40;;;;;;;3.30;1.67;;;11.00;99.90;;;;;;6153413;23;20031;-76
2022/09/01 12:04:22;;;;;;;2.83;2.15;;;11.10;99.90;;;;;;6181148;23;20427;-76
2022/09/01 12:06:57;;;;;;;1.90;1.20;;;11.10;99.90;;;;;;6154927;23;20025;-75
2022/09/01 12:09:39;;;;;;;3.17;1.30;;;11.00;99.90;;;;;;6181539;23;20024;-75
2022/09/01 12:12:25;;;;;;;3.10;1.00;;;11.00;99.90;;;;;;6153268;23;20027;-76
2022/09/01 12:14:57;;;;;;;2.15;0.93;;;11.10;99.90;;;;;;6154282;23;20048;-76
2022/09/01 12:17:25;;;;;;;3.47;0.85;;;11.20;99.90;;;;;;6181185;23;20462;-75
2022/09/01 12:19:53;;;;;;;2.03;0.88;;;11.30;99.90;;;;;;6180153;23;20071;-75
2022/09/01 12:22:22;;;;;;;4.45;1.58;;;11.30;99.90;;;;;;6180567;23;20024;-75
2022/09/01 12:24:53;;;;;;;3.08;0.93;;;11.40;99.90;;;;;;6180866;23;20566;-76
2022/09/01 12:27:26;;;;;;;4.30;1.05;;;11.60;99.90;;;;;;6180494;23;20017;-76
2022/09/01 12:29:55;;;;;;;2.92;1.38;;;11.90;99.90;;;;;;6178876;23;20025;-77
2022/09/01 12:32:24;;;;;;;3.03;1.30;;;12.00;99.90;;;;;;6180375;23;20017;-77
2022/09/01 12:35:02;;;;;;;1.77;1.17;;;12.10;99.90;;;;;;6153146;23;20021;-77
2022/09/01 12:37:30;;;;;;;3.33;1.45;;;12.20;99.90;;;;;;6153015;23;20024;-77
2022/09/01 12:40:00;;;;;;;3.70;1.25;;;12.20;99.90;;;;;;6178860;23;20116;-78
2022/09/01 12:42:33;;;;;;;3.45;1.10;;;12.20;99.90;;;;;;6153860;23;20044;-78
2022/09/01 12:45:04;;;;;;;2.10;0.90;;;12.20;99.90;;;;;;6180654;23;20017;-73
2022/09/01 12:47:50;;;;;;;7.45;1.30;;;12.10;99.90;;;;;;6180570;23;20025;-76
2022/09/01 12:50:51;;;;;;;4.55;0.90;;;12.10;99.90;;;;;;6180199;23;20020;-77
2022/09/01 12:53:27;;;;;;;2.25;0.60;;;12.20;99.90;;;;;;6180055;23;20112;-77
2022/09/01 12:56:04;;;;;;;7.78;1.05;;;12.10;99.90;;;;;;6179406;23;20088;-76
2022/09/01 12:58:33;;;;;;;4.45;1.85;;;12.10;99.90;;;;;;6150112;23;20052;-74
2022/09/01 13:01:13;;;;;;;1.20;0.90;;;12.10;99.90;;;;;;6177299;23;20076;-73
2022/09/01 13:03:41;;;;;;;3.75;1.63;;;12.10;99.90;;;;;;6179233;23;20315;-73
2022/09/01 13:06:08;;;;;;;4.75;1.73;;;12.10;99.90;;;;;;6178932;23;20099;-76
2022/09/01 13:08:36;;;;;;;6.45;2.28;;;12.10;99.90;;;;;;6152741;23;20024;-78
2022/09/01 13:11:07;;;;;;;4.47;2.05;;;12.00;99.90;;;;;;6179716;23;20288;-76
2022/09/01 13:13:35;;;;;;;8.23;2.08;;;11.90;99.90;;;;;;6177520;23;20025;-77
2022/09/01 13:16:11;;;;;;;4.60;1.80;;;11.80;99.90;;;;;;6152126;23;20028;-75
2022/09/01 13:18:40;;;;;;;5.32;1.38;;;11.70;99.90;;;;;;6154387;23;20029;-75
2022/09/01 13:21:08;;;;;;;2.67;1.38;;;11.60;99.90;;;;;;6180529;23;20028;-75
2022/09/01 13:23:36;;;;;;;4.80;1.73;;;11.50;99.90;;;;;;6180550;23;20021;-77
2022/09/01 13:26:07;;;;;;;3.05;1.50;;;11.40;99.90;;;;;;6179500;23;20108;-77
2022/09/01 13:28:34;;;;;;;3.05;1.30;;;11.30;99.90;;;;;;6153716;23;20033;-76
2022/09/01 13:31:04;;;;;;;3.20;1.65;;;11.30;99.90;;;;;;6180327;23;20454;-77
2022/09/01 13:33:33;;;;;;;3.63;1.98;;;11.30;99.90;;;;;;6180492;23;20025;-76
2022/09/01 13:36:04;;;;;;;5.90;2.17;;;11.30;99.90;;;;;;6179653;23;20021;-77